Time;durP1;ratioP1;P1;durP2;ratioP2;P2;SDS_P1;SDS_P2;PMS_P1;PMS_P2;Temp;Humidity;BMP_temperature;BMP_pressure;BME280_temperature;BME280_humidity;BME280_pressure;Samples;Min_cycle;Max_cycle;Signal;HPM_P1;HPM_P2
2023/04/20 00:01:08;;;;;;;8.23;4.93;;;;;;;2.95;100.00;96175.97;6154994;23;20013;-84
2023/04/20 00:03:34;;;;;;;8.60;3.93;;;;;;;2.89;100.00;96175.59;6155355;23;20032;-84
2023/04/20 00:06:00;;;;;;;9.47;5.03;;;;;;;2.92;100.00;96168.38;6180008;23;20063;-84
2023/04/20 00:08:27;;;;;;;11.57;5.90;;;;;;;2.81;100.00;96165.75;6132756;23;20013;-84
2023/04/20 00:10:53;;;;;;;9.07;5.30;;;;;;;2.83;100.00;96158.66;6155125;23;20020;-84
2023/04/20 00:13:18;;;;;;;8.07;4.83;;;;;;;2.88;100.00;96163.50;6175494;23;19997;-83
2023/04/20 00:15:46;;;;;;;11.87;5.13;;;;;;;2.87;100.00;96147.09;6164273;23;20013;-84
2023/04/20 00:18:12;;;;;;;9.60;4.83;;;;;;;2.62;100.00;96148.09;6154070;23;20095;-83
2023/04/20 00:20:43;;;;;;;10.57;5.43;;;;;;;2.49;100.00;96148.16;6179087;23;20110;-84
2023/04/20 00:23:09;;;;;;;9.53;5.17;;;;;;;2.49;100.00;96147.34;6178865;23;20044;-84
2023/04/20 00:25:35;;;;;;;9.73;5.60;;;;;;;2.35;100.00;96146.56;6205338;23;20691;-84
2023/04/20 00:28:00;;;;;;;7.83;4.50;;;;;;;2.45;100.00;96133.75;6204600;23;20440;-84
2023/04/20 00:30:26;;;;;;;10.63;4.77;;;;;;;2.51;100.00;96129.88;6180527;23;20020;-84
2023/04/20 00:32:54;;;;;;;9.20;4.73;;;;;;;2.48;100.00;96132.69;6178853;23;20075;-84
2023/04/20 00:35:19;;;;;;;8.47;4.70;;;;;;;2.44;100.00;96121.69;6178892;23;20095;-85
2023/04/20 00:37:45;;;;;;;9.13;4.97;;;;;;;2.41;100.00;96129.72;6154956;23;20005;-84
2023/04/20 00:40:11;;;;;;;9.40;4.77;;;;;;;2.44;100.00;96126.06;6154716;23;20040;-84
2023/04/20 00:42:39;;;;;;;8.80;5.83;;;;;;;2.41;100.00;96124.53;6156540;23;20029;-85
2023/04/20 00:45:05;;;;;;;9.33;4.97;;;;;;;2.33;100.00;96125.09;6152704;23;20013;-84
2023/04/20 00:47:32;;;;;;;9.43;5.30;;;;;;;2.20;100.00;96126.09;6151338;23;20047;-84
2023/04/20 00:50:01;;;;;;;12.43;5.77;;;;;;;2.24;100.00;96122.31;6151336;23;20437;-84
2023/04/20 00:52:26;;;;;;;12.37;5.87;;;;;;;2.30;100.00;96114.09;6209267;23;20416;-84
2023/04/20 00:54:52;;;;;;;13.63;5.80;;;;;;;2.25;100.00;96111.03;6153811;23;20016;-84
2023/04/20 00:57:22;;;;;;;13.80;5.10;;;;;;;2.18;100.00;96112.38;6178809;23;20021;-84
2023/04/20 00:59:53;;;;;;;9.60;5.67;;;;;;;2.18;100.00;96112.38;6202641;23;20549;-84
2023/04/20 01:02:21;;;;;;;7.85;4.40;;;;;;;2.15;100.00;96108.28;6152982;23;20435;-84
2023/04/20 01:04:50;;;;;;;8.97;4.77;;;;;;;2.12;100.00;96103.31;6154040;23;20092;-84
2023/04/20 01:07:16;;;;;;;8.43;5.00;;;;;;;1.96;100.00;96097.56;6179189;23;20025;-84
2023/04/20 01:09:45;;;;;;;8.53;5.13;;;;;;;2.11;100.00;96092.09;6153960;23;20413;-84
2023/04/20 01:12:10;;;;;;;9.53;5.37;;;;;;;2.07;100.00;96093.22;6154005;23;20356;-84
2023/04/20 01:14:36;;;;;;;9.33;5.43;;;;;;;2.07;100.00;96079.44;6203686;23;20405;-84
2023/04/20 01:17:03;;;;;;;7.23;4.17;;;;;;;2.02;100.00;96079.78;6154778;23;20017;-84
2023/04/20 01:19:29;;;;;;;8.83;5.17;;;;;;;1.99;100.00;96074.81;6154089;23;20100;-84
2023/04/20 01:22:02;;;;;;;9.87;5.17;;;;;;;1.92;100.00;96068.41;6178873;23;20412;-84
2023/04/20 01:24:28;;;;;;;13.77;5.57;;;;;;;1.81;100.00;96061.41;6154814;23;20021;-84
2023/04/20 01:26:54;;;;;;;7.70;4.50;;;;;;;1.77;100.00;96057.38;6154628;23;21045;-84
2023/04/20 01:29:19;;;;;;;9.53;5.47;;;;;;;1.80;100.00;96062.34;6154594;23;20013;-84
2023/04/20 01:31:52;;;;;;;10.60;5.13;;;;;;;1.67;100.00;96058.97;6154168;23;20012;-84
2023/04/20 01:34:18;;;;;;;10.00;4.95;;;;;;;1.69;100.00;96056.28;6153897;23;20013;-83
2023/04/20 01:36:45;;;;;;;12.27;5.07;;;;;;;1.81;100.00;96052.78;6153265;23;20389;-84
2023/04/20 01:39:11;;;;;;;9.37;5.80;;;;;;;1.80;100.00;96056.31;6153599;23;20023;-84
2023/04/20 01:41:38;;;;;;;9.67;5.43;;;;;;;1.77;100.00;96047.00;6153897;23;20411;-84
2023/04/20 01:44:05;;;;;;;7.83;5.20;;;;;;;1.73;100.00;96042.97;6153880;23;20012;-84
2023/04/20 01:46:31;;;;;;;7.70;4.97;;;;;;;1.69;100.00;96038.13;6178852;23;20385;-84
2023/04/20 01:48:57;;;;;;;11.73;5.30;;;;;;;1.63;100.00;96032.44;6179175;23;20471;-84
2023/04/20 01:51:22;;;;;;;12.10;5.80;;;;;;;1.56;100.00;96036.41;6180506;23;20020;-85
2023/04/20 01:53:48;;;;;;;9.03;5.03;;;;;;;1.50;100.00;96038.59;6152684;23;20000;-84
2023/04/20 01:56:14;;;;;;;14.57;5.43;;;;;;;1.51;100.00;96035.91;6147465;23;20096;-84
2023/04/20 01:58:39;;;;;;;9.87;5.37;;;;;;;1.39;100.00;96040.19;6147825;23;20001;-84
2023/04/20 02:01:05;;;;;;;9.83;5.57;;;;;;;1.25;100.00;96048.09;6148499;23;20443;-84
2023/04/20 02:03:32;;;;;;;8.00;4.93;;;;;;;1.23;100.00;96046.53;6150626;23;20009;-84
2023/04/20 02:05:57;;;;;;;10.27;5.80;;;;;;;1.23;100.00;96046.53;6174817;23;20416;-84
2023/04/20 02:08:28;;;;;;;12.83;5.90;;;;;;;1.29;100.00;96048.72;6174563;23;20095;-85
2023/04/20 02:10:54;;;;;;;9.63;5.33;;;;;;;1.41;100.00;96040.91;6176072;23;20416;-84
2023/04/20 02:13:20;;;;;;;10.97;5.30;;;;;;;1.32;100.00;96041.56;6156592;23;20004;-84
2023/04/20 02:15:53;;;;;;;9.40;5.63;;;;;;;1.44;100.00;96042.44;6157000;23;20074;-84
2023/04/20 02:18:21;;;;;;;10.23;5.43;;;;;;;1.43;100.00;96038.19;6157252;23;20420;-84
2023/04/20 02:20:51;;;;;;;10.10;5.80;;;;;;;1.41;100.00;96037.50;6155764;23;20420;-84
2023/04/20 02:23:17;;;;;;;11.23;5.70;;;;;;;1.37;100.00;96039.44;6180777;23;20080;-84
2023/04/20 02:25:42;;;;;;;12.07;6.07;;;;;;;1.38;100.00;96037.72;6180702;23;20435;-84
2023/04/20 02:28:17;;;;;;;11.33;6.40;;;;;;;1.26;100.00;96030.78;6181855;23;20016;-84
2023/04/20 02:30:42;;;;;;;12.37;6.47;;;;;;;1.29;100.00;96028.00;6156178;23;20424;-84
2023/04/20 02:33:12;;;;;;;10.17;5.53;;;;;;;1.23;100.00;96028.41;6175821;23;20408;-84
2023/04/20 02:35:38;;;;;;;10.90;5.37;;;;;;;1.08;100.00;96032.91;6155482;23;20428;-84
2023/04/20 02:38:04;;;;;;;9.53;5.30;;;;;;;1.01;100.00;96023.91;6156344;23;20416;-84
2023/04/20 02:40:37;;;;;;;11.00;6.13;;;;;;;1.11;100.00;96027.50;6182291;23;20025;-84
2023/04/20 02:43:21;;;;;;;10.15;6.70;;;;;;;1.10;100.00;96021.47;6183775;23;20463;-84
2023/04/20 02:45:47;;;;;;;10.70;6.33;;;;;;;1.13;100.00;96030.81;6183249;23;20012;-84
2023/04/20 02:48:14;;;;;;;10.73;6.03;;;;;;;1.10;100.00;96024.06;6158988;23;20416;-84
2023/04/20 02:50:41;;;;;;;13.23;6.73;;;;;;;1.06;100.00;96016.63;6158214;23;20471;-84
2023/04/20 02:53:33;;;;;;;11.67;6.57;;;;;;;1.03;100.00;96022.03;6163379;23;20136;-84
2023/04/20 02:56:13;;;;;;;14.27;6.80;;;;;;;1.02;100.00;96018.59;6161172;23;20432;-84
2023/04/20 02:58:43;;;;;;;13.03;6.80;;;;;;;0.98;100.00;96018.94;6184790;23;20471;-84
2023/04/20 03:01:19;;;;;;;11.87;6.30;;;;;;;1.01;100.00;96019.56;6160983;23;20448;-84
2023/04/20 03:03:48;;;;;;;9.40;5.83;;;;;;;1.03;100.00;96017.66;6155864;23;20452;-84
2023/04/20 03:06:14;;;;;;;10.53;5.90;;;;;;;0.90;100.00;96015.09;6180823;23;20420;-84
2023/04/20 03:08:44;;;;;;;11.60;7.00;;;;;;;0.93;100.00;96011.47;6179402;23;20946;-84
2023/04/20 03:11:30;;;;;;;10.50;6.57;;;;;;;0.98;100.00;96006.81;6180286;23;20712;-84
2023/04/20 03:13:57;;;;;;;9.53;6.20;;;;;;;0.90;100.00;96007.31;6180821;23;20474;-85
2023/04/20 03:16:23;;;;;;;11.20;6.73;;;;;;;0.83;100.00;95998.31;6155865;23;20907;-84
2023/04/20 03:18:51;;;;;;;9.50;6.33;;;;;;;0.87;100.00;96002.38;6177075;23;20416;-84
2023/04/20 03:21:17;;;;;;;12.17;6.63;;;;;;;0.80;100.00;95997.72;6200920;23;20428;-84
2023/04/20 03:23:43;;;;;;;10.70;6.70;;;;;;;0.76;100.00;96002.28;6205449;23;20020;-84
2023/04/20 03:26:12;;;;;;;14.73;6.90;;;;;;;0.76;100.00;96006.63;6155998;23;20401;-85
2023/04/20 03:28:53;;;;;;;;;;;;;;;0.74;100.00;96008.47;6181950;23;20454;-84
2023/04/20 03:31:23;;;;;;;11.33;6.70;;;;;;;0.67;100.00;96003.75;6155639;23;19915;-84
2023/04/20 03:33:50;;;;;;;9.83;5.80;;;;;;;0.65;100.00;96000.41;6156203;23;20416;-84
2023/04/20 03:36:16;;;;;;;10.53;6.13;;;;;;;0.67;100.00;96002.88;6181560;23;20420;-84
2023/04/20 03:38:42;;;;;;;10.73;6.53;;;;;;;0.71;100.00;95994.00;6183104;23;20413;-84
2023/04/20 03:41:07;;;;;;;12.03;7.37;;;;;;;0.59;100.00;95998.25;6159754;23;20007;-84
2023/04/20 03:43:33;;;;;;;12.30;7.07;;;;;;;0.62;100.00;95995.44;6170873;23;20088;-84
2023/04/20 03:46:00;;;;;;;10.43;7.47;;;;;;;0.58;100.00;95994.00;6180211;23;20031;-84
2023/04/20 03:48:29;;;;;;;11.77;6.73;;;;;;;0.68;100.00;95992.44;6155579;23;21029;-84
2023/04/20 03:51:00;;;;;;;11.43;7.20;;;;;;;0.69;100.00;95994.09;6179416;23;20427;-83
2023/04/20 03:53:27;;;;;;;10.77;6.50;;;;;;;0.59;100.00;95989.66;6179918;23;20504;-84
2023/04/20 03:55:54;;;;;;;12.87;7.60;;;;;;;0.63;100.00;95989.34;6173128;23;20412;-85
2023/04/20 03:58:20;;;;;;;14.43;6.33;;;;;;;1.23;100.00;95984.38;6181010;23;20908;-85
2023/04/20 04:01:06;;;;;;;11.50;7.30;;;;;;;1.06;100.00;95988.97;6158882;23;20409;-83
2023/04/20 04:03:33;;;;;;;13.07;7.37;;;;;;;0.93;100.00;95989.00;6153905;23;20425;-84
2023/04/20 04:06:01;;;;;;;11.73;6.87;;;;;;;0.83;100.00;95987.16;6154691;23;20969;-84
2023/04/20 04:08:32;;;;;;;12.10;7.03;;;;;;;0.87;100.00;95991.16;6155225;23;20423;-84
2023/04/20 04:10:59;;;;;;;11.73;7.47;;;;;;;0.59;100.00;95993.06;6154946;23;20432;-84
2023/04/20 04:13:25;;;;;;;12.43;7.13;;;;;;;0.59;100.00;95984.47;6205164;23;20428;-84
2023/04/20 04:15:51;;;;;;;13.63;8.50;;;;;;;0.62;100.00;95979.94;6180202;23;20463;-83
2023/04/20 04:18:17;;;;;;;10.97;7.33;;;;;;;0.65;100.00;95977.13;6155415;23;20069;-84
2023/04/20 04:20:42;;;;;;;12.53;6.70;;;;;;;0.44;100.00;95986.34;6178863;23;20424;-83
2023/04/20 04:23:10;;;;;;;11.70;7.70;;;;;;;0.44;100.00;95991.53;6154384;23;20052;-84
2023/04/20 04:25:56;;;;;;;13.07;7.90;;;;;;;0.59;100.00;95987.88;6204125;23;20426;-84
2023/04/20 04:28:23;;;;;;;15.10;8.23;;;;;;;0.61;100.00;95978.28;6155500;23;20807;-84
2023/04/20 04:31:17;;;;;;;17.27;10.03;;;;;;;0.68;100.00;95983.88;6178869;23;20432;-84
2023/04/20 04:33:44;;;;;;;14.40;8.90;;;;;;;0.62;100.00;95979.94;6156007;23;20413;-84
2023/04/20 04:36:14;;;;;;;12.87;8.00;;;;;;;0.73;100.00;95978.34;6154104;23;20412;-83
2023/04/20 04:38:44;;;;;;;13.17;7.93;;;;;;;0.70;100.00;95982.84;6154844;23;20478;-84
2023/04/20 04:41:13;;;;;;;17.37;8.73;;;;;;;0.67;100.00;95985.63;6155007;23;20435;-84
2023/04/20 04:43:41;;;;;;;12.93;8.33;;;;;;;0.74;100.00;95972.25;6154613;23;20495;-84
2023/04/20 04:46:24;;;;;;;16.00;8.93;;;;;;;0.77;100.00;95977.22;6157056;23;20488;-83
2023/04/20 04:48:50;;;;;;;14.30;9.13;;;;;;;0.74;100.00;95975.69;6153408;23;20820;-83
2023/04/20 04:51:18;;;;;;;14.10;10.00;;;;;;;0.90;100.00;95975.44;6177375;23;20432;-84
2023/04/20 04:53:50;;;;;;;13.97;8.47;;;;;;;0.78;100.00;95971.94;6153028;23;20491;-83
2023/04/20 04:56:19;;;;;;;14.33;7.93;;;;;;;0.79;100.00;95973.59;6154559;23;20423;-83
2023/04/20 04:58:45;;;;;;;14.00;8.47;;;;;;;0.97;100.00;95968.88;6130381;23;20429;-84
2023/04/20 05:01:11;;;;;;;13.73;8.60;;;;;;;1.02;100.00;95972.00;6179479;23;20400;-84
2023/04/20 05:03:36;;;;;;;16.50;9.07;;;;;;;1.21;100.00;95970.69;6179104;23;20741;-83
2023/04/20 05:06:02;;;;;;;18.30;10.60;;;;;;;1.28;100.00;95977.13;6179811;23;20423;-83
2023/04/20 05:08:28;;;;;;;18.23;10.30;;;;;;;1.34;100.00;95976.66;6180189;23;20016;-83
2023/04/20 05:10:53;;;;;;;16.30;9.77;;;;;;;1.58;100.00;95974.94;6155408;23;20040;-83
2023/04/20 05:13:19;;;;;;;14.17;9.40;;;;;;;1.98;100.00;95964.25;6155918;23;20005;-85
2023/04/20 05:15:44;;;;;;;13.13;8.50;;;;;;;1.93;100.00;95965.50;6206909;23;20000;-84
2023/04/20 05:18:10;;;;;;;11.53;8.07;;;;;;;2.41;100.00;95955.84;6157068;23;20032;-84
2023/04/20 05:20:36;;;;;;;14.40;8.67;;;;;;;2.69;100.00;95956.34;6157441;23;20066;-84
2023/04/20 05:23:01;;;;;;;12.40;8.27;;;;;;;2.87;100.00;95956.69;6156484;23;20012;-84
2023/04/20 05:25:27;;;;;;;11.67;8.00;;;;;;;2.99;100.00;95956.56;6166276;23;20005;-85
2023/04/20 05:27:52;;;;;;;12.40;7.70;;;;;;;2.87;100.00;95954.91;6165884;23;20009;-86
2023/04/20 05:30:18;;;;;;;12.43;7.47;;;;;;;3.31;100.00;95954.03;6155845;23;20032;-82
2023/04/20 05:32:44;;;;;;;14.00;8.47;;;;;;;3.23;100.00;95958.19;6177792;23;20092;-82
2023/04/20 05:35:09;;;;;;;13.57;9.20;;;;;;;3.73;100.00;95948.97;6154653;23;20035;-83
2023/04/20 05:37:35;;;;;;;14.30;9.50;;;;;;;3.97;100.00;95955.72;6179623;23;20013;-82
2023/04/20 05:40:00;;;;;;;14.20;8.27;;;;;;;4.36;100.00;95950.75;6204059;23;20019;-82
2023/04/20 05:42:26;;;;;;;14.67;9.10;;;;;;;4.52;100.00;95945.09;6209876;23;20087;-83
2023/04/20 05:44:51;;;;;;;15.83;9.27;;;;;;;4.70;100.00;95948.78;6197712;23;20041;-83
2023/04/20 05:47:17;;;;;;;12.90;8.13;;;;;;;5.05;100.00;95939.72;6179239;23;20013;-83
2023/04/20 05:49:44;;;;;;;12.90;7.10;;;;;;;5.17;100.00;95931.66;6175641;23;20020;-83
2023/04/20 05:52:10;;;;;;;14.67;8.13;;;;;;;4.94;100.00;95931.03;6177653;23;20493;-83
2023/04/20 05:54:45;;;;;;;11.93;7.97;;;;;;;5.47;100.00;95926.50;6153751;23;20184;-83
2023/04/20 05:57:10;;;;;;;14.00;8.40;;;;;;;5.36;100.00;95924.81;6153696;23;20011;-83
2023/04/20 05:59:36;;;;;;;12.47;7.20;;;;;;;6.07;100.00;95927.22;6177574;23;20013;-82
2023/04/20 06:02:02;;;;;;;12.73;7.53;;;;;;;5.63;100.00;95925.03;6154261;23;20016;-82
2023/04/20 06:04:29;;;;;;;12.77;7.77;;;;;;;4.86;100.00;95935.25;6179133;23;20013;-83
2023/04/20 06:06:55;;;;;;;14.67;7.90;;;;;;;4.33;100.00;95943.22;6203446;23;20020;-83
2023/04/20 06:09:20;;;;;;;13.77;8.50;;;;;;;4.40;100.00;95939.97;6177687;23;20017;-82
2023/04/20 06:11:46;;;;;;;11.63;8.13;;;;;;;4.47;100.00;95941.13;6176635;23;20020;-83
2023/04/20 06:14:13;;;;;;;12.13;8.40;;;;;;;4.52;100.00;95938.09;6177172;23;20040;-83
2023/04/20 06:16:39;;;;;;;11.37;7.70;;;;;;;4.70;100.00;95935.75;6178186;23;20020;-83
2023/04/20 06:19:05;;;;;;;13.47;8.13;;;;;;;4.72;100.00;95944.25;6179236;23;20017;-82
2023/04/20 06:21:33;;;;;;;16.07;8.90;;;;;;;4.97;100.00;95928.16;6152786;23;20019;-83
2023/04/20 06:23:59;;;;;;;12.83;8.67;;;;;;;5.04;100.00;95940.69;6178691;23;20024;-82
2023/04/20 06:26:25;;;;;;;11.63;8.00;;;;;;;4.95;100.00;95926.66;6204208;23;20437;-82
2023/04/20 06:28:52;;;;;;;11.30;7.43;;;;;;;5.17;100.00;95926.44;6154712;23;20020;-83
2023/04/20 06:31:18;;;;;;;11.63;7.90;;;;;;;4.97;100.00;95928.16;6127122;23;20077;-83
2023/04/20 06:33:44;;;;;;;11.67;7.60;;;;;;;5.23;100.00;95924.25;6151457;23;20036;-83
2023/04/20 06:36:10;;;;;;;12.47;8.73;;;;;;;5.62;100.00;95925.13;6177738;23;20047;-83
2023/04/20 06:38:36;;;;;;;15.23;8.33;;;;;;;5.81;100.00;95924.34;6154516;23;20039;-83
2023/04/20 06:41:02;;;;;;;12.93;7.83;;;;;;;5.29;100.00;95918.50;6178250;23;20599;-82
2023/04/20 06:43:29;;;;;;;15.00;8.20;;;;;;;5.16;100.00;95923.97;6154234;23;20009;-82
2023/04/20 06:45:55;;;;;;;13.87;7.20;;;;;;;5.03;100.00;95933.78;6178969;23;20017;-83
2023/04/20 06:48:21;;;;;;;16.30;8.50;;;;;;;4.80;100.00;95931.41;6154913;23;20109;-83
2023/04/20 06:50:48;;;;;;;14.40;7.90;;;;;;;5.01;100.00;95928.72;6178460;23;20043;-82
2023/04/20 06:53:15;;;;;;;15.23;7.57;;;;;;;4.75;100.00;95927.53;6153807;23;20041;-82
2023/04/20 06:55:41;;;;;;;13.33;7.93;;;;;;;4.54;100.00;95938.00;6178837;23;20019;-83
2023/04/20 06:58:07;;;;;;;12.00;8.33;;;;;;;4.65;100.00;95933.50;6178690;23;20013;-83
2023/04/20 07:00:32;;;;;;;13.40;8.77;;;;;;;4.54;100.00;95933.59;6179917;23;20016;-83
2023/04/20 07:02:58;;;;;;;18.33;8.67;;;;;;;4.55;100.00;95937.03;6155092;23;20051;-83
2023/04/20 07:05:24;;;;;;;14.33;8.20;;;;;;;4.73;100.00;95938.91;6181108;23;20043;-83
2023/04/20 07:07:50;;;;;;;11.63;8.47;;;;;;;5.00;100.00;95939.25;6155139;23;20090;-83
2023/04/20 07:10:16;;;;;;;13.93;9.00;;;;;;;4.39;100.00;95943.53;6171755;23;20344;-83
2023/04/20 07:12:42;;;;;;;13.10;8.53;;;;;;;4.57;100.00;95940.34;6153231;23;20016;-83
2023/04/20 07:15:08;;;;;;;14.73;9.07;;;;;;;4.49;100.00;95943.56;6155124;23;20012;-83
2023/04/20 07:17:34;;;;;;;11.83;7.90;;;;;;;4.65;100.00;95936.13;6154460;23;20333;-83
2023/04/20 07:20:09;;;;;;;16.93;8.90;;;;;;;4.96;100.00;95934.34;6154178;23;20043;-83
2023/04/20 07:22:38;;;;;;;12.40;7.93;;;;;;;5.20;100.00;95933.19;6153291;23;20013;-83
2023/04/20 07:25:06;;;;;;;13.57;9.00;;;;;;;4.97;100.00;95925.56;6178682;23;20013;-82
2023/04/20 07:27:36;;;;;;;14.93;8.60;;;;;;;5.00;100.00;95934.91;6155149;23;20091;-83
2023/04/20 07:30:05;;;;;;;14.73;9.13;;;;;;;4.75;100.00;95943.16;6155888;23;20013;-83
2023/04/20 07:32:31;;;;;;;13.03;8.63;;;;;;;4.63;100.00;95942.44;6154854;23;20044;-83
2023/04/20 07:34:56;;;;;;;15.77;9.63;;;;;;;5.04;100.00;95935.47;6180796;23;20009;-83
2023/04/20 07:37:22;;;;;;;18.03;10.00;;;;;;;4.83;100.00;95938.97;6180168;23;20322;-83
2023/04/20 07:39:48;;;;;;;15.70;9.13;;;;;;;4.95;100.00;95937.88;6180783;23;20012;-83
2023/04/20 07:42:13;;;;;;;14.27;10.20;;;;;;;5.01;100.00;95943.53;6180092;23;20017;-83
2023/04/20 07:44:39;;;;;;;15.83;10.00;;;;;;;5.35;100.00;95944.88;6155381;23;20009;-83
2023/04/20 07:47:04;;;;;;;13.23;9.43;;;;;;;5.21;100.00;95942.66;6182527;23;20020;-83
2023/04/20 07:49:30;;;;;;;16.33;10.50;;;;;;;4.89;100.00;95953.22;6180687;23;20515;-83
2023/04/20 07:51:56;;;;;;;14.60;10.80;;;;;;;5.03;100.00;95949.44;6154776;23;20019;-83
2023/04/20 07:54:21;;;;;;;16.93;10.27;;;;;;;5.08;100.00;95948.09;6155491;23;20005;-83
2023/04/20 07:56:47;;;;;;;18.17;11.20;;;;;;;5.27;100.00;95949.13;6155542;23;20083;-83
2023/04/20 07:59:12;;;;;;;18.37;12.13;;;;;;;5.25;100.00;95953.63;6155971;23;20588;-83
2023/04/20 08:01:38;;;;;;;15.57;11.20;;;;;;;4.99;100.00;95948.06;6155401;23;20627;-83
2023/04/20 08:04:04;;;;;;;17.17;11.00;;;;;;;5.09;100.00;95954.94;6155145;23;20012;-82
2023/04/20 08:06:30;;;;;;;16.57;10.87;;;;;;;5.35;100.00;95952.69;6180431;23;20008;-83
2023/04/20 08:08:56;;;;;;;19.20;11.37;;;;;;;5.32;100.00;95950.34;6155269;23;20016;-83
2023/04/20 08:11:23;;;;;;;17.50;11.50;;;;;;;5.05;100.00;95950.13;6180150;23;20016;-83
2023/04/20 08:13:49;;;;;;;19.80;12.63;;;;;;;5.05;100.00;95964.00;6155446;23;20009;-82
2023/04/20 08:16:14;;;;;;;20.30;12.07;;;;;;;5.28;100.00;95953.38;6155925;23;20017;-83
2023/04/20 08:18:40;;;;;;;21.00;12.20;;;;;;;5.15;100.00;95951.00;6180138;23;20001;-83
2023/04/20 08:21:05;;;;;;;19.17;12.53;;;;;;;5.29;100.00;95952.41;6179143;23;20036;-83
2023/04/20 08:23:31;;;;;;;22.33;13.33;;;;;;;5.20;100.00;95943.63;6155530;23;20017;-83
2023/04/20 08:25:56;;;;;;;20.03;13.13;;;;;;;5.31;100.00;95948.69;6155768;23;20067;-82
2023/04/20 08:28:23;;;;;;;20.13;13.70;;;;;;;4.81;100.00;95956.50;6155237;23;20055;-83
2023/04/20 08:30:50;;;;;;;20.43;13.53;;;;;;;5.00;100.00;95955.75;6180295;23;20029;-83
2023/04/20 08:33:16;;;;;;;24.70;15.57;;;;;;;4.83;100.00;95949.38;6155173;23;20013;-83
2023/04/20 08:35:42;;;;;;;22.50;13.73;;;;;;;4.70;100.00;95951.38;6154676;23;20017;-82
2023/04/20 08:38:08;;;;;;;26.17;14.13;;;;;;;4.79;100.00;95936.72;6179752;23;20110;-83
2023/04/20 08:40:35;;;;;;;22.80;14.60;;;;;;;4.87;100.00;95935.13;6155369;23;20086;-83
2023/04/20 08:43:01;;;;;;;21.37;14.00;;;;;;;4.75;100.00;95949.19;6155253;23;20100;-83
2023/04/20 08:45:29;;;;;;;22.23;14.53;;;;;;;4.49;100.00;95954.84;6156041;23;20094;-83
2023/04/20 08:47:57;;;;;;;21.77;14.50;;;;;;;4.56;100.00;95947.34;6156351;23;20148;-83
2023/04/20 08:50:22;;;;;;;25.13;14.43;;;;;;;4.85;100.00;95949.22;6181618;23;20009;-83
2023/04/20 08:52:48;;;;;;;23.60;14.57;;;;;;;4.94;100.00;95945.84;6164790;23;20024;-83
2023/04/20 08:55:17;;;;;;;27.27;15.33;;;;;;;4.96;100.00;95947.38;6189399;23;20036;-84
2023/04/20 08:57:43;;;;;;;24.17;14.67;;;;;;;5.20;100.00;95947.03;6179278;23;20089;-83
2023/04/20 09:00:10;;;;;;;21.63;14.57;;;;;;;5.30;100.00;95949.66;6180253;23;20116;-83
2023/04/20 09:02:52;;;;;;;25.27;15.03;;;;;;;5.41;100.00;95944.34;6154499;23;20017;-83
2023/04/20 09:05:28;;;;;;;23.97;14.27;;;;;;;5.25;100.00;95946.63;6154875;23;20021;-83
2023/04/20 09:07:56;;;;;;;25.03;16.50;;;;;;;5.34;100.00;95945.84;6154937;23;20012;-83
2023/04/20 09:10:25;;;;;;;25.90;15.47;;;;;;;5.07;100.00;95946.44;6155480;23;20058;-83
2023/04/20 09:12:51;;;;;;;25.93;15.47;;;;;;;5.13;100.00;95935.50;6154834;23;20023;-83
2023/04/20 09:15:28;;;;;;;23.53;16.30;;;;;;;5.48;100.00;95928.16;6155117;23;20019;-83
2023/04/20 09:17:54;;;;;;;25.03;14.53;;;;;;;5.72;100.00;95925.16;6155389;23;20051;-83
2023/04/20 09:20:33;;;;;;;23.50;15.20;;;;;;;5.72;100.00;95914.72;6154546;23;20024;-83
2023/04/20 09:23:13;;;;;;;21.40;13.87;;;;;;;6.42;100.00;95913.56;6178559;23;20024;-83
2023/04/20 09:25:42;;;;;;;22.67;14.67;;;;;;;5.81;100.00;95919.94;6179664;23;20009;-83
2023/04/20 09:28:08;;;;;;;24.97;16.70;;;;;;;6.59;100.00;95920.66;6180110;23;20016;-83
2023/04/20 09:30:48;;;;;;;21.07;13.63;;;;;;;6.18;100.00;95911.41;6155019;23;20353;-83
2023/04/20 09:33:14;;;;;;;24.73;14.40;;;;;;;6.29;100.00;95911.25;6178905;23;20483;-83
2023/04/20 09:35:44;;;;;;;22.93;15.07;;;;;;;6.29;100.00;95908.63;6179326;23;20021;-83
2023/04/20 09:38:15;;;;;;;21.90;14.53;;;;;;;6.40;100.00;95907.66;6154337;23;20023;-83
2023/04/20 09:40:41;;;;;;;18.17;13.17;;;;;;;6.48;100.00;95906.97;6179669;23;20075;-83
2023/04/20 09:43:17;;;;;;;18.03;12.57;;;;;;;6.31;100.00;95903.28;6154886;23;20016;-83
2023/04/20 09:45:43;;;;;;;20.07;12.33;;;;;;;6.79;100.00;95903.13;6179092;23;20344;-83
2023/04/20 09:48:09;;;;;;;15.97;10.67;;;;;;;6.92;100.00;95894.13;6152528;23;20071;-83
2023/04/20 09:50:36;;;;;;;15.83;11.23;;;;;;;6.72;100.00;95878.53;6151537;23;20113;-83
2023/04/20 09:53:05;;;;;;;16.10;11.30;;;;;;;6.61;100.00;95890.00;6155219;23;20012;-83
2023/04/20 09:55:31;;;;;;;16.93;10.53;;;;;;;7.17;100.00;95887.38;6155283;23;20094;-83
2023/04/20 09:58:00;;;;;;;17.10;10.83;;;;;;;6.96;100.00;95890.25;6154588;23;20012;-84
2023/04/20 10:00:37;;;;;;;17.43;10.87;;;;;;;7.00;100.00;95879.34;6154666;23;20024;-82
2023/04/20 10:03:03;;;;;;;15.20;10.37;;;;;;;7.11;100.00;95878.34;6154608;23;20017;-83
2023/04/20 10:05:35;;;;;;;16.00;10.90;;;;;;;7.04;100.00;95877.28;6154288;23;20067;-83
2023/04/20 10:08:02;;;;;;;16.20;9.38;;;;;;;7.24;100.00;95868.38;6154592;23;20024;-83
2023/04/20 10:10:28;;;;;;;12.93;8.60;;;;;;;7.63;100.00;95862.84;6179390;23;20028;-82
2023/04/20 10:12:57;;;;;;;14.27;9.40;;;;;;;7.65;100.00;95865.31;6178931;23;20016;-83
2023/04/20 10:15:23;;;;;;;16.57;9.70;;;;;;;7.89;100.00;95844.56;6154318;23;20357;-83
2023/04/20 10:17:49;;;;;;;13.10;9.10;;;;;;;7.96;100.00;95850.84;6154666;23;20017;-83
2023/04/20 10:20:19;;;;;;;15.10;9.67;;;;;;;7.94;100.00;95841.50;6179299;23;20013;-83
2023/04/20 10:22:45;;;;;;;13.17;8.67;;;;;;;7.73;100.00;95844.44;6153927;23;20017;-83
2023/04/20 10:25:22;;;;;;;15.77;9.63;;;;;;;7.97;100.00;95833.34;6154729;23;20105;-83
2023/04/20 10:28:04;;;;;;;14.77;9.40;;;;;;;7.88;100.00;95829.84;6155346;23;20012;-83
2023/04/20 10:30:31;;;;;;;13.13;8.57;;;;;;;7.63;100.00;95834.06;6155731;23;20071;-83
2023/04/20 10:36:47;;;;;;;14.97;7.87;;;;;;;7.85;100.00;95830.16;6191855;23;20064;-88
2023/04/20 10:43:53;;;;;;;14.13;7.83;;;;;;;7.23;100.00;95834.50;6155399;23;20048;-87
2023/04/20 10:47:26;;;;;;;12.17;7.40;;;;;;;7.62;100.00;95832.41;6180053;23;20013;-87
2023/04/20 10:51:00;;;;;;;;;;;;;;;7.55;100.00;95829.59;6122722;23;20047;-87
2023/04/20 10:54:10;;;;;;;10.07;6.17;;;;;;;7.55;100.00;95826.97;6091528;23;20037;-87
2023/04/20 10:56:54;;;;;;;10.27;6.17;;;;;;;7.44;100.00;95823.75;6068129;23;20018;-87
2023/04/20 10:59:37;;;;;;;;;;;;;;;7.39;100.00;95818.16;6194605;23;20017;-87
2023/04/20 11:03:36;;;;;;;10.20;6.03;;;;;;;7.25;100.00;95828.16;6185101;23;20343;-87
2023/04/20 11:06:02;;;;;;;12.13;8.27;;;;;;;7.29;100.00;95829.50;6163330;23;20147;-87
2023/04/20 11:08:39;;;;;;;10.90;6.70;;;;;;;7.06;100.00;95817.81;6135296;23;20040;-87
2023/04/20 11:11:06;;;;;;;11.87;8.30;;;;;;;6.95;100.00;95825.88;6158068;23;20017;-86
2023/04/20 11:13:33;;;;;;;11.33;7.17;;;;;;;7.16;100.00;95817.75;6132948;23;20008;-87
2023/04/20 11:15:59;;;;;;;11.87;7.23;;;;;;;7.20;100.00;95812.06;6185630;23;20045;-88
2023/04/20 11:18:24;;;;;;;12.13;7.67;;;;;;;7.19;100.00;95813.06;6185088;23;20032;-86
2023/04/20 11:20:54;;;;;;;12.00;7.10;;;;;;;7.01;100.00;95809.63;6207617;23;20040;-87
2023/04/20 11:23:22;;;;;;;12.83;8.10;;;;;;;7.01;100.00;95804.38;6155689;23;20057;-87
2023/04/20 11:26:15;;;;;;;12.07;7.87;;;;;;;6.80;100.00;95804.63;6181237;23;20020;-87
2023/04/20 11:28:54;;;;;;;13.02;7.63;;;;;;;7.05;100.00;95796.09;6159507;23;20013;-87
2023/04/20 11:31:19;;;;;;;13.17;8.03;;;;;;;7.30;100.00;95794.50;6155665;23;20025;-87
2023/04/20 11:33:45;;;;;;;10.80;7.53;;;;;;;7.06;100.00;95808.19;6179328;23;20067;-87
2023/04/20 11:36:21;;;;;;;12.73;7.57;;;;;;;7.13;100.00;95805.81;6157733;23;20024;-88
2023/04/20 11:38:47;;;;;;;11.50;7.43;;;;;;;7.21;100.00;95794.59;6160269;23;20024;-87
2023/04/20 11:41:13;;;;;;;12.20;7.63;;;;;;;7.25;100.00;95791.53;6183780;23;20016;-87